Time;durP1;ratioP1;P1;durP2;ratioP2;P2;SDS_P1;SDS_P2;PMS_P1;PMS_P2;Temp;Humidity;BMP_temperature;BMP_pressure;BME280_temperature;BME280_humidity;BME280_pressure;Samples;Min_cycle;Max_cycle;Signal;HPM_P1;HPM_P2
2024/04/12 00:01:10;;;;;;;5.20;1.35;;;10.10;99.90;;;;;;5491081;26;20091;-78
2024/04/12 00:03:38;;;;;;;2.90;1.48;;;10.10;99.90;;;;;;5459839;26;20010;-80
2024/04/12 00:06:20;;;;;;;4.97;1.60;;;10.20;99.90;;;;;;5459596;26;20002;-81
2024/04/12 00:08:48;;;;;;;5.25;1.40;;;10.20;99.90;;;;;;5459900;26;20002;-80
2024/04/12 00:11:16;;;;;;;3.53;1.70;;;10.20;99.90;;;;;;5459219;26;20423;-80
2024/04/12 00:13:44;;;;;;;5.05;2.50;;;10.10;99.90;;;;;;5459316;26;20348;-80
2024/04/12 00:16:10;;;;;;;4.97;1.90;;;10.00;99.90;;;;;;5459107;26;20459;-79
2024/04/12 00:18:37;;;;;;;2.63;1.52;;;10.00;99.90;;;;;;5459520;26;19994;-80
2024/04/12 00:21:05;;;;;;;2.50;1.42;;;9.90;99.90;;;;;;5491524;26;20030;-79
2024/04/12 00:23:34;;;;;;;2.90;1.50;;;9.90;99.90;;;;;;5458910;26;20312;-79
2024/04/12 00:26:01;;;;;;;3.25;1.58;;;9.90;99.90;;;;;;5491498;26;19990;-80
2024/04/12 00:28:30;;;;;;;2.75;1.40;;;9.80;99.90;;;;;;5458746;26;19994;-80
2024/04/12 00:30:59;;;;;;;2.05;1.30;;;9.80;99.90;;;;;;5458910;26;20006;-80
2024/04/12 00:33:32;;;;;;;4.43;1.60;;;9.70;99.90;;;;;;5458596;26;20447;-80
2024/04/12 00:36:13;;;;;;;5.30;1.70;;;9.60;99.90;;;;;;5459107;26;19990;-80
2024/04/12 00:38:43;;;;;;;2.75;1.50;;;9.50;99.90;;;;;;5459289;26;20331;-79
2024/04/12 00:41:18;;;;;;;3.92;1.67;;;9.50;99.90;;;;;;5459010;26;19986;-81
2024/04/12 00:43:51;;;;;;;4.07;1.67;;;9.40;99.90;;;;;;5491260;26;20074;-81
2024/04/12 00:46:23;;;;;;;3.22;1.52;;;9.30;99.90;;;;;;5458742;26;20056;-81
2024/04/12 00:48:51;;;;;;;3.30;2.00;;;9.30;99.90;;;;;;5491477;26;20009;-80
2024/04/12 00:51:18;;;;;;;4.00;1.80;;;9.40;99.90;;;;;;5458681;26;20431;-81
2024/04/12 00:53:49;;;;;;;6.05;1.58;;;9.40;99.90;;;;;;5491326;26;19994;-81
2024/04/12 00:56:15;;;;;;;2.60;1.58;;;9.50;99.90;;;;;;5459048;26;19990;-81
2024/04/12 00:58:47;;;;;;;4.47;1.58;;;9.50;99.90;;;;;;5491438;26;20004;-81
2024/04/12 01:01:16;;;;;;;4.70;1.55;;;9.50;99.90;;;;;;5459263;26;19990;-81
2024/04/12 01:03:47;;;;;;;3.10;1.63;;;9.60;99.90;;;;;;5459417;26;19990;-81
2024/04/12 01:06:24;;;;;;;4.47;1.67;;;9.70;99.90;;;;;;5491158;26;20002;-80
2024/04/12 01:09:10;;;;;;;2.88;1.60;;;9.70;99.90;;;;;;5491106;26;19997;-81
2024/04/12 01:11:37;;;;;;;4.93;1.60;;;9.70;99.90;;;;;;5459157;26;19994;-81
2024/04/12 01:14:05;;;;;;;3.65;1.40;;;9.80;99.90;;;;;;5459240;26;19990;-81
2024/04/12 01:16:31;;;;;;;7.05;1.55;;;9.80;99.90;;;;;;5458552;26;19994;-81
2024/04/12 01:18:57;;;;;;;3.08;1.60;;;9.80;99.90;;;;;;5491280;26;20002;-81
2024/04/12 01:21:24;;;;;;;2.33;1.60;;;9.70;99.90;;;;;;5490336;26;20002;-81
2024/04/12 01:23:53;;;;;;;4.57;1.60;;;9.70;99.90;;;;;;5459294;26;20511;-80
2024/04/12 01:26:20;;;;;;;3.75;1.58;;;9.70;99.90;;;;;;5458451;26;20001;-80
2024/04/12 01:28:48;;;;;;;4.10;1.60;;;9.70;99.90;;;;;;5459131;26;20027;-82
2024/04/12 01:31:17;;;;;;;1.52;1.30;;;9.70;99.90;;;;;;5458639;26;19994;-81
2024/04/12 01:33:50;;;;;;;4.22;1.40;;;9.80;99.90;;;;;;5459417;26;20001;-81
2024/04/12 01:36:21;;;;;;;3.45;1.60;;;9.80;99.90;;;;;;5458460;26;20034;-81
2024/04/12 01:38:54;;;;;;;2.75;1.80;;;9.70;99.90;;;;;;5458982;26;20001;-82
2024/04/12 01:41:23;;;;;;;5.18;1.73;;;9.70;99.90;;;;;;5490245;26;20015;-81
2024/04/12 01:43:52;;;;;;;3.97;1.50;;;9.70;99.90;;;;;;5457390;26;19994;-81
2024/04/12 01:46:26;;;;;;;3.97;1.80;;;9.60;99.90;;;;;;5458360;26;20420;-81
2024/04/12 01:48:54;;;;;;;3.15;1.45;;;9.60;99.90;;;;;;5459212;26;19996;-82
2024/04/12 01:51:23;;;;;;;3.90;1.70;;;9.70;99.90;;;;;;5458470;26;19994;-81
2024/04/12 01:53:54;;;;;;;5.57;1.67;;;9.60;99.90;;;;;;5458880;26;20059;-81
2024/04/12 01:56:26;;;;;;;4.03;1.80;;;9.50;99.90;;;;;;5489390;26;19994;-81
2024/04/12 01:58:51;;;;;;;;;;;9.40;99.90;;;;;;5459131;26;19994;-80
2024/04/12 02:01:17;;;;;;;2.92;1.65;;;9.40;99.90;;;;;;5489609;26;20356;-79
2024/04/12 02:03:44;;;;;;;5.85;1.75;;;9.40;99.90;;;;;;5458253;26;19998;-80
2024/04/12 02:06:10;;;;;;;4.43;1.70;;;9.30;99.90;;;;;;5457989;26;20004;-79
2024/04/12 02:08:35;;;;;;;1.85;1.55;;;9.30;99.90;;;;;;5457361;26;19990;-79
2024/04/12 02:11:05;;;;;;;3.38;1.40;;;9.30;99.90;;;;;;5489909;26;20445;-79
2024/04/12 02:13:35;;;;;;;2.92;1.70;;;9.20;99.90;;;;;;5489122;26;20018;-81
2024/04/12 02:16:02;;;;;;;3.25;1.45;;;9.20;99.90;;;;;;5489919;26;19994;-81
2024/04/12 02:18:32;;;;;;;3.22;1.60;;;9.10;99.90;;;;;;5456928;26;20038;-81
2024/04/12 02:21:04;;;;;;;3.55;1.50;;;9.10;99.90;;;;;;5458173;26;20006;-82
2024/04/12 02:23:32;;;;;;;;;;;9.00;99.90;;;;;;5490003;26;20026;-81
2024/04/12 02:25:58;;;;;;;4.38;1.48;;;9.00;99.90;;;;;;5458209;26;19951;-82
2024/04/12 02:28:26;;;;;;;2.92;1.80;;;9.00;99.90;;;;;;5456923;26;20427;-81
2024/04/12 02:31:01;;;;;;;5.30;1.60;;;9.00;99.90;;;;;;5489438;26;20002;-80
2024/04/12 02:33:31;;;;;;;4.03;1.50;;;9.10;99.90;;;;;;5456742;26;20327;-78
2024/04/12 02:36:30;;;;;;;6.28;1.83;;;9.00;99.90;;;;;;5489613;26;20020;-79
2024/04/12 02:38:57;;;;;;;7.40;1.80;;;9.10;99.90;;;;;;5489756;26;20005;-80
2024/04/12 02:41:22;;;;;;;4.50;1.63;;;9.10;99.90;;;;;;5456553;26;19998;-79
2024/04/12 02:43:51;;;;;;;5.88;1.48;;;9.10;99.90;;;;;;5457365;26;19997;-79
2024/04/12 02:46:20;;;;;;;4.30;1.55;;;9.00;99.90;;;;;;5457311;26;19994;-77
2024/04/12 02:48:49;;;;;;;3.60;1.60;;;9.00;99.90;;;;;;5489986;26;19990;-80
2024/04/12 02:51:19;;;;;;;3.58;1.70;;;8.90;99.90;;;;;;5490025;26;19997;-79
2024/04/12 02:53:48;;;;;;;2.33;1.52;;;8.90;99.90;;;;;;5457705;26;19994;-79
2024/04/12 02:56:15;;;;;;;7.07;1.60;;;8.90;99.90;;;;;;5492891;26;20009;-79
2024/04/12 02:58:51;;;;;;;2.05;1.63;;;8.90;99.90;;;;;;5460342;26;19990;-79
2024/04/12 03:01:26;;;;;;;3.55;1.60;;;8.90;99.90;;;;;;5493162;26;20039;-81
2024/04/12 03:03:55;;;;;;;5.97;1.73;;;8.90;99.90;;;;;;5461127;26;19994;-80
2024/04/12 03:06:25;;;;;;;4.28;1.67;;;8.80;99.90;;;;;;5492871;26;20438;-80
2024/04/12 03:08:53;;;;;;;3.58;1.55;;;8.70;99.90;;;;;;5493441;26;19990;-80
2024/04/12 03:11:22;;;;;;;2.35;1.50;;;8.60;99.90;;;;;;5492743;26;19986;-78
2024/04/12 03:13:58;;;;;;;3.17;1.48;;;8.60;99.90;;;;;;5493309;26;19994;-80
2024/04/12 03:16:24;;;;;;;6.00;2.00;;;8.60;99.90;;;;;;5460718;26;20001;-80
2024/04/12 03:18:51;;;;;;;2.38;1.50;;;8.50;99.90;;;;;;5461396;26;20004;-80
2024/04/12 03:21:22;;;;;;;4.75;1.77;;;8.50;99.90;;;;;;5493087;26;20001;-80
2024/04/12 03:23:49;;;;;;;4.45;1.70;;;8.50;99.90;;;;;;5461013;26;20005;-80
2024/04/12 03:26:15;;;;;;;3.13;2.05;;;8.60;99.90;;;;;;5493089;26;19994;-80
2024/04/12 03:28:45;;;;;;;3.38;1.67;;;8.60;99.90;;;;;;5492911;26;19990;-80
2024/04/12 03:31:14;;;;;;;2.38;1.50;;;8.70;99.90;;;;;;5493382;26;20022;-80
2024/04/12 03:33:43;;;;;;;2.58;1.50;;;8.70;99.90;;;;;;5460455;26;20229;-80
2024/04/12 03:36:26;;;;;;;7.60;1.83;;;8.70;99.90;;;;;;5492680;26;19994;-80
2024/04/12 03:42:18;;;;;;;5.57;1.77;;;8.80;99.90;;;;;;5492022;26;20018;-80
2024/04/12 03:44:38;;;;;;;4.93;1.50;;;8.80;99.90;;;;;;5491367;26;20423;-80
2024/04/12 03:47:07;;;;;;;3.97;1.80;;;8.80;99.90;;;;;;5492474;26;20013;-80
2024/04/12 03:49:36;;;;;;;3.05;1.70;;;8.80;99.90;;;;;;5459623;26;20427;-79
2024/04/12 03:52:05;;;;;;;3.17;1.70;;;8.80;99.90;;;;;;5492546;26;20377;-80
2024/04/12 03:54:30;;;;;;;4.88;1.98;;;8.80;99.90;;;;;;5459433;26;20002;-79
2024/04/12 03:56:58;;;;;;;5.55;1.98;;;8.80;99.90;;;;;;5492330;26;19990;-79
2024/04/12 03:59:31;;;;;;;3.45;1.90;;;8.80;99.90;;;;;;5491298;26;20124;-79
2024/04/12 04:01:56;;;;;;;3.55;1.65;;;8.80;99.90;;;;;;5460230;26;19994;-79
2024/04/12 04:04:28;;;;;;;3.03;1.63;;;8.80;99.90;;;;;;5491779;26;20029;-78
2024/04/12 04:06:54;;;;;;;3.15;1.80;;;8.80;99.90;;;;;;5491235;26;19997;-79
2024/04/12 04:09:20;;;;;;;2.45;1.88;;;8.80;99.90;;;;;;5492330;26;19998;-79
2024/04/12 04:11:53;;;;;;;3.67;2.05;;;8.90;99.90;;;;;;5491662;26;19994;-79
2024/04/12 04:14:25;;;;;;;3.17;1.60;;;8.90;99.90;;;;;;5460368;26;20095;-80
2024/04/12 04:16:52;;;;;;;6.93;2.22;;;8.90;99.90;;;;;;5492967;26;20026;-79
2024/04/12 04:19:30;;;;;;;4.03;1.73;;;8.90;99.90;;;;;;5460139;26;19997;-79
2024/04/12 04:24:51;;;;;;;2.83;1.60;;;9.10;99.90;;;;;;5460928;26;20068;-79
2024/04/12 04:27:18;;;;;;;6.20;1.65;;;9.10;99.90;;;;;;5459815;26;19998;-81
2024/04/12 04:29:44;;;;;;;5.63;1.50;;;9.20;99.90;;;;;;5458928;26;20008;-80
2024/04/12 04:32:10;;;;;;;4.15;2.15;;;9.20;99.90;;;;;;5460076;26;19994;-80
2024/04/12 04:34:36;;;;;;;3.33;1.45;;;9.10;99.90;;;;;;5459616;26;20005;-81
2024/04/12 04:37:05;;;;;;;4.38;1.80;;;9.10;99.90;;;;;;5491934;26;19990;-80
2024/04/12 04:39:32;;;;;;;4.88;1.83;;;9.10;99.90;;;;;;5491406;26;19994;-80
2024/04/12 04:41:58;;;;;;;4.28;1.85;;;9.10;99.90;;;;;;5491828;26;19994;-80
2024/04/12 04:44:25;;;;;;;2.78;1.65;;;9.10;99.90;;;;;;5491214;26;19998;-78
2024/04/12 04:46:51;;;;;;;3.83;1.63;;;9.10;99.90;;;;;;5459879;26;20514;-81
2024/04/12 04:49:19;;;;;;;6.22;1.73;;;9.10;99.90;;;;;;5459910;26;20001;-79
2024/04/12 04:51:45;;;;;;;4.80;2.13;;;9.20;99.90;;;;;;5458962;26;20043;-79
2024/04/12 04:54:13;;;;;;;4.03;1.77;;;9.10;99.90;;;;;;5459748;26;19990;-80
2024/04/12 04:56:44;;;;;;;4.28;1.52;;;9.10;99.90;;;;;;5459584;26;20022;-80
2024/04/12 04:59:16;;;;;;;5.43;1.58;;;9.10;99.90;;;;;;5459766;26;20071;-81
2024/04/12 05:01:42;;;;;;;;;;;9.10;99.90;;;;;;5459920;26;20312;-78
2024/04/12 05:04:15;;;;;;;2.90;1.60;;;9.20;99.90;;;;;;5491621;26;20389;-80
2024/04/12 05:06:41;;;;;;;7.25;1.70;;;9.20;99.90;;;;;;5491208;26;20006;-80
2024/04/12 05:09:08;;;;;;;3.42;1.55;;;9.20;99.90;;;;;;5459428;26;20009;-80
2024/04/12 05:11:34;;;;;;;5.55;2.13;;;9.20;99.90;;;;;;5491298;26;20001;-82
2024/04/12 05:14:13;;;;;;;4.85;1.65;;;9.20;99.90;;;;;;5459508;26;19998;-82
2024/04/12 05:16:42;;;;;;;3.88;1.70;;;9.20;99.90;;;;;;5459121;26;20006;-80
2024/04/12 05:19:08;;;;;;;3.08;1.55;;;9.10;99.90;;;;;;5458478;26;20414;-80
2024/04/12 05:21:45;;;;;;;3.30;1.75;;;9.20;99.90;;;;;;5458339;26;20001;-80
2024/04/12 05:24:11;;;;;;;7.38;2.10;;;9.10;99.90;;;;;;5459360;26;19990;-80
2024/04/12 05:26:41;;;;;;;5.72;1.83;;;9.10;99.90;;;;;;5458399;26;20016;-78
2024/04/12 05:29:17;;;;;;;3.50;1.70;;;9.20;99.90;;;;;;5458858;26;20323;-79
2024/04/12 05:31:42;;;;;;;4.68;1.67;;;9.30;99.90;;;;;;5490437;26;19994;-83
2024/04/12 05:34:18;;;;;;;4.53;1.75;;;9.20;99.90;;;;;;5452715;26;20009;-84
2024/04/12 05:36:44;;;;;;;4.57;1.85;;;9.20;99.90;;;;;;5456731;26;20068;-83
2024/04/12 05:39:11;;;;;;;4.00;2.03;;;9.20;99.90;;;;;;5486145;26;20002;-81
2024/04/12 05:41:44;;;;;;;2.85;1.80;;;9.20;99.90;;;;;;5490332;26;19998;-81
2024/04/12 05:44:10;;;;;;;2.80;1.77;;;9.20;99.90;;;;;;5506199;26;20001;-81
2024/04/12 05:46:39;;;;;;;3.50;1.65;;;9.20;99.90;;;;;;5464366;26;20014;-81
2024/04/12 05:49:12;;;;;;;4.03;1.90;;;9.20;99.90;;;;;;5513960;26;20016;-80
2024/04/12 05:51:41;;;;;;;3.70;1.70;;;9.20;99.90;;;;;;5450303;26;20079;-80
2024/04/12 05:54:15;;;;;;;2.88;1.80;;;9.10;99.90;;;;;;5422089;26;20010;-80
2024/04/12 05:56:44;;;;;;;7.18;2.10;;;9.10;99.90;;;;;;5452721;26;19995;-80
2024/04/12 05:59:13;;;;;;;4.40;1.80;;;9.10;99.90;;;;;;5421465;26;19995;-81
2024/04/12 06:01:43;;;;;;;6.68;1.80;;;9.10;99.90;;;;;;5453743;26;19995;-80
2024/04/12 06:04:13;;;;;;;3.58;1.90;;;9.20;99.90;;;;;;5454258;26;20007;-81
2024/04/12 06:06:42;;;;;;;5.65;2.00;;;9.20;99.90;;;;;;5454070;26;20010;-80
2024/04/12 06:09:16;;;;;;;10.10;3.38;;;9.30;99.90;;;;;;5454277;26;20001;-82
2024/04/12 06:11:42;;;;;;;4.68;2.20;;;9.40;99.90;;;;;;5421709;26;20041;-81
2024/04/12 06:14:09;;;;;;;6.85;2.20;;;9.40;99.90;;;;;;5422382;26;20006;-81
2024/04/12 06:16:35;;;;;;;5.28;2.60;;;9.40;99.90;;;;;;5422058;26;20075;-81
2024/04/12 06:19:02;;;;;;;3.47;2.08;;;9.50;99.90;;;;;;5422456;26;20006;-82
2024/04/12 06:21:30;;;;;;;3.92;2.03;;;9.50;99.90;;;;;;5422681;26;19999;-82
2024/04/12 06:23:56;;;;;;;6.43;2.53;;;9.60;99.90;;;;;;5422610;26;20033;-82
2024/04/12 06:26:22;;;;;;;6.97;2.72;;;9.70;99.90;;;;;;5422437;26;20006;-82
2024/04/12 06:28:49;;;;;;;4.20;2.30;;;9.80;99.90;;;;;;5421606;26;20001;-81
2024/04/12 06:31:19;;;;;;;4.10;2.17;;;9.80;99.90;;;;;;5425323;26;20005;-83
2024/04/12 06:33:51;;;;;;;4.55;2.33;;;9.90;99.90;;;;;;5425945;26;20002;-82
2024/04/12 06:36:17;;;;;;;;;;;10.00;99.90;;;;;;5426285;26;20003;-82
2024/04/12 06:38:43;;;;;;;5.03;2.13;;;10.00;99.90;;;;;;5425941;26;19931;-82
2024/04/12 06:41:14;;;;;;;4.85;2.25;;;10.10;99.90;;;;;;5426038;26;19995;-84
2024/04/12 06:43:45;;;;;;;5.67;2.57;;;10.10;99.90;;;;;;5457743;26;19995;-83
2024/04/12 06:46:13;;;;;;;4.50;2.20;;;10.20;99.90;;;;;;5463371;26;20001;-83
2024/04/12 06:48:40;;;;;;;6.68;2.30;;;10.30;99.90;;;;;;5431589;26;20028;-83
2024/04/12 06:51:11;;;;;;;6.10;2.20;;;10.30;99.90;;;;;;5430982;26;20002;-83
2024/04/12 06:53:44;;;;;;;6.38;2.70;;;10.40;99.90;;;;;;5430347;26;20001;-83
2024/04/12 06:56:15;;;;;;;5.82;2.40;;;10.40;99.90;;;;;;5459030;26;19994;-83
2024/04/12 06:58:46;;;;;;;7.45;2.50;;;10.50;99.90;;;;;;5424848;26;20010;-83
2024/04/12 07:01:12;;;;;;;4.22;2.28;;;10.50;99.90;;;;;;5457386;26;19991;-83
2024/04/12 07:03:40;;;;;;;8.27;2.75;;;10.60;99.90;;;;;;5425229;26;20041;-83
2024/04/12 07:06:07;;;;;;;6.85;2.40;;;10.70;99.90;;;;;;5427496;26;19990;-84
2024/04/12 07:08:33;;;;;;;3.85;2.50;;;10.80;99.90;;;;;;5428353;26;20309;-82
2024/04/12 07:11:06;;;;;;;3.95;2.38;;;10.80;99.90;;;;;;5426521;26;20056;-82
2024/04/12 07:13:33;;;;;;;7.00;2.90;;;10.90;99.90;;;;;;5425794;26;20434;-80
2024/04/12 07:16:03;;;;;;;6.68;2.30;;;10.90;99.90;;;;;;5457655;26;20000;-82
2024/04/12 07:18:29;;;;;;;3.85;2.15;;;11.00;99.90;;;;;;5457670;26;20002;-83
2024/04/12 07:23:46;;;;;;;6.00;2.78;;;11.10;99.90;;;;;;5456591;26;19997;-82
2024/04/12 07:26:14;;;;;;;;;;;11.20;99.90;;;;;;5425693;26;20435;-84
2024/04/12 07:28:41;;;;;;;5.25;2.33;;;11.30;99.90;;;;;;5456265;26;19932;-82
2024/04/12 07:31:07;;;;;;;5.38;2.58;;;11.30;99.90;;;;;;5425536;26;19991;-82
2024/04/12 07:33:33;;;;;;;8.55;2.35;;;11.40;99.90;;;;;;5425047;26;20006;-83
2024/04/12 07:35:59;;;;;;;4.13;2.38;;;11.40;99.90;;;;;;5456746;26;20049;-83
2024/04/12 07:38:29;;;;;;;5.22;2.40;;;11.50;99.90;;;;;;5425035;26;20003;-84
2024/04/12 07:40:55;;;;;;;5.25;2.47;;;11.60;99.90;;;;;;5454911;26;20002;-84
2024/04/12 07:43:23;;;;;;;3.75;2.22;;;11.60;99.90;;;;;;5424613;26;20010;-85
2024/04/12 07:45:50;;;;;;;5.38;2.35;;;11.80;99.90;;;;;;5424401;26;20443;-84
2024/04/12 07:50:47;;;;;;;3.63;2.28;;;11.90;99.90;;;;;;5456338;26;19998;-84
2024/04/12 07:53:26;;;;;;;5.53;2.00;;;11.90;99.90;;;;;;5425137;26;19998;-84
2024/04/12 07:56:08;;;;;;;5.78;2.40;;;12.00;99.90;;;;;;5424371;26;20336;-83
2024/04/12 07:58:35;;;;;;;6.20;2.15;;;12.10;99.90;;;;;;5424980;26;20006;-85
2024/04/12 08:01:18;;;;;;;5.50;2.15;;;12.10;99.90;;;;;;5424630;26;19998;-84
2024/04/12 08:03:56;;;;;;;4.05;2.40;;;12.20;99.90;;;;;;5455978;26;20001;-86
2024/04/12 08:06:36;;;;;;;6.57;2.40;;;12.20;99.90;;;;;;5425199;26;20390;-85
2024/04/12 08:09:06;;;;;;;6.82;2.22;;;12.30;99.90;;;;;;5456671;26;20001;-85
2024/04/12 08:11:35;;;;;;;4.72;2.50;;;12.30;99.90;;;;;;5424506;26;20006;-85
2024/04/12 08:14:05;;;;;;;6.38;2.40;;;12.40;99.90;;;;;;5424633;26;20044;-85
2024/04/12 08:16:46;;;;;;;4.68;2.40;;;12.40;99.90;;;;;;5424880;26;19991;-85
2024/04/12 08:19:13;;;;;;;4.88;2.10;;;12.40;99.90;;;;;;5456562;26;19994;-85
2024/04/12 08:21:43;;;;;;;5.30;2.30;;;12.60;99.90;;;;;;5424083;26;20035;-84
2024/04/12 08:24:10;;;;;;;8.32;2.03;;;12.60;99.90;;;;;;5456086;26;20010;-85
2024/04/12 08:26:45;;;;;;;9.55;2.50;;;12.60;99.90;;;;;;5456258;26;20326;-85
2024/04/12 08:29:26;;;;;;;7.68;2.60;;;12.70;99.90;;;;;;5456240;26;19995;-86
2024/04/12 08:32:13;;;;;;;8.00;2.30;;;12.80;99.90;;;;;;5423866;26;20002;-85
2024/04/12 08:34:45;;;;;;;5.53;2.00;;;12.90;99.90;;;;;;5423313;26;19991;-84
2024/04/12 08:37:16;;;;;;;7.30;2.15;;;12.90;99.90;;;;;;5456075;26;20002;-86
2024/04/12 08:39:54;;;;;;;6.03;2.67;;;12.90;99.90;;;;;;5424058;26;19999;-85
2024/04/12 08:42:28;;;;;;;7.05;2.10;;;13.00;99.90;;;;;;5456105;26;20070;-86
2024/04/12 08:44:58;;;;;;;7.00;2.30;;;13.10;99.90;;;;;;5423713;26;19995;-85
2024/04/12 08:50:06;;;;;;;4.57;1.90;;;13.20;99.90;;;;;;5455350;26;20002;-86
2024/04/12 08:52:43;;;;;;;7.13;2.13;;;13.30;99.90;;;;;;5423726;26;19991;-85
2024/04/12 08:55:13;;;;;;;4.93;1.90;;;13.40;99.90;;;;;;5424453;26;19991;-85
2024/04/12 08:57:43;;;;;;;3.05;2.20;;;13.40;99.90;;;;;;5423393;26;19994;-84
2024/04/12 09:00:16;;;;;;;9.70;2.13;;;13.50;99.90;;;;;;5423835;26;19991;-87
2024/04/12 09:02:48;;;;;;;5.40;1.92;;;13.60;99.90;;;;;;5423744;26;19995;-86
2024/04/12 09:05:15;;;;;;;5.25;2.75;;;13.60;99.90;;;;;;5424201;26;20002;-86
2024/04/12 09:07:42;;;;;;;4.93;2.00;;;13.70;99.90;;;;;;5423624;26;20005;-85
2024/04/12 09:10:15;;;;;;;6.65;2.47;;;13.80;99.90;;;;;;5455896;26;20002;-85
2024/04/12 09:12:43;;;;;;;6.07;2.33;;;13.90;99.50;;;;;;5454782;26;19999;-85
2024/04/12 09:15:14;;;;;;;5.43;1.58;;;14.00;99.90;;;;;;5455682;26;20036;-86
2024/04/12 09:17:41;;;;;;;8.48;1.95;;;14.00;99.90;;;;;;5455160;26;20031;-79
2024/04/12 09:20:29;;;;;;;4.45;2.05;;;13.90;99.90;;;;;;5423841;26;20006;-86
2024/04/12 09:22:55;;;;;;;6.38;2.00;;;14.00;99.90;;;;;;5454834;26;19991;-87
2024/04/12 09:25:26;;;;;;;4.50;1.83;;;14.10;99.90;;;;;;5423233;26;20005;-87
2024/04/12 09:27:52;;;;;;;4.82;1.90;;;14.20;99.50;;;;;;5454585;26;19990;-86
2024/04/12 09:33:20;;;;;;;4.85;1.73;;;14.40;99.50;;;;;;5454451;26;20014;-85
2024/04/12 09:35:51;;;;;;;7.60;1.85;;;14.50;99.10;;;;;;5422873;26;19994;-86
2024/04/12 09:38:21;;;;;;;4.68;1.33;;;14.50;98.60;;;;;;5423764;26;20001;-85
2024/04/12 09:40:55;;;;;;;3.28;1.17;;;14.60;98.00;;;;;;5422738;26;20006;-84
2024/04/12 09:43:25;;;;;;;3.58;1.77;;;14.70;97.10;;;;;;5423186;26;19991;-85
2024/04/12 09:46:05;;;;;;;3.72;1.77;;;14.70;97.20;;;;;;5422653;26;20443;-85
2024/04/12 10:38:38;;;;;;;4.38;1.20;;;15.90;92.80;;;;;;5454098;26;20022;-85
2024/04/12 10:41:07;;;;;;;3.28;0.90;;;15.90;92.80;;;;;;5421726;26;20205;-85
2024/04/12 10:43:38;;;;;;;3.50;0.80;;;15.80;92.60;;;;;;5422493;26;20007;-86
2024/04/12 10:46:10;;;;;;;2.05;0.75;;;15.90;91.90;;;;;;5453100;26;20002;-85
2024/04/12 10:48:37;;;;;;;5.13;0.85;;;16.10;91.40;;;;;;5422677;26;19991;-85
2024/04/12 10:51:08;;;;;;;3.97;1.00;;;16.30;90.90;;;;;;5421835;26;19995;-86
2024/04/12 10:53:38;;;;;;;5.45;1.08;;;16.30;90.80;;;;;;5453489;26;19997;-85
2024/04/12 10:56:07;;;;;;;2.55;0.98;;;16.30;91.40;;;;;;5421726;26;20035;-85
2024/04/12 10:58:33;;;;;;;3.67;0.82;;;16.40;91.40;;;;;;5453559;26;19995;-87
2024/04/12 11:01:04;;;;;;;2.67;1.10;;;16.40;90.90;;;;;;5421310;26;19995;-87
2024/04/12 11:03:30;;;;;;;2.45;1.23;;;16.40;91.00;;;;;;5453896;26;19995;-87
2024/04/12 11:06:10;;;;;;;2.35;0.98;;;16.40;91.50;;;;;;5421417;26;20446;-86
2024/04/12 11:08:36;;;;;;;2.72;1.10;;;16.50;91.10;;;;;;5422056;26;19995;-86
2024/04/12 11:11:19;;;;;;;1.42;0.80;;;16.60;91.00;;;;;;5421627;26;19994;-87
2024/04/12 11:13:47;;;;;;;2.22;0.90;;;16.50;90.90;;;;;;5421693;26;19994;-87
2024/04/12 11:32:56;;;;;;;6.55;1.38;;;17.40;90.40;;;;;;5456332;26;20389;-87
2024/04/12 11:35:28;;;;;;;6.13;1.50;;;17.50;90.40;;;;;;5425283;26;20007;-86
2024/04/12 11:37:54;;;;;;;6.15;1.25;;;17.40;90.90;;;;;;5424965;26;20019;-87
2024/04/12 11:40:20;;;;;;;2.70;1.10;;;17.40;91.10;;;;;;5424909;26;19995;-87
2024/04/12 11:42:46;;;;;;;6.35;1.23;;;17.30;91.50;;;;;;5425081;26;20003;-87
2024/04/12 11:45:15;;;;;;;2.85;1.08;;;17.30;91.20;;;;;;5456138;26;19999;-87
2024/04/12 11:47:41;;;;;;;6.03;1.77;;;17.50;90.20;;;;;;5425052;26;19991;-87
2024/04/12 11:50:10;;;;;;;4.38;1.25;;;17.50;90.10;;;;;;5456078;26;19999;-86
2024/04/12 11:52:40;;;;;;;5.28;1.40;;;17.50;90.00;;;;;;5424877;26;19991;-86
2024/04/12 11:55:11;;;;;;;5.13;1.27;;;17.40;90.00;;;;;;5424043;26;20023;-87
2024/04/12 11:57:40;;;;;;;4.35;1.20;;;17.40;90.10;;;;;;5424675;26;19991;-87
2024/04/12 12:00:09;;;;;;;4.85;1.17;;;17.60;89.70;;;;;;5424085;26;20065;-87
2024/04/12 12:02:44;;;;;;;2.97;1.00;;;17.60;90.40;;;;;;5425138;26;20055;-87
2024/04/12 12:05:16;;;;;;;3.70;0.90;;;17.80;88.20;;;;;;5424515;26;20006;-88
2024/04/12 12:07:44;;;;;;;3.97;1.00;;;18.00;88.10;;;;;;5425298;26;20002;-87
2024/04/12 12:10:11;;;;;;;3.42;1.10;;;18.20;87.80;;;;;;5424127;26;19999;-87
2024/04/12 12:12:37;;;;;;;3.53;1.02;;;18.20;88.10;;;;;;5425237;26;20443;-88
2024/04/12 12:15:06;;;;;;;4.72;1.40;;;18.30;89.40;;;;;;5455723;26;20010;-87
2024/04/12 12:17:32;;;;;;;3.63;0.88;;;18.50;87.50;;;;;;5456787;26;20415;-87
2024/04/12 12:19:58;;;;;;;3.40;1.00;;;18.60;88.00;;;;;;5456070;26;19995;-87
2024/04/12 12:22:24;;;;;;;3.28;1.10;;;18.70;89.40;;;;;;5425128;26;20056;-88
2024/04/12 12:24:49;;;;;;;5.28;1.13;;;18.80;88.80;;;;;;5424683;26;19995;-87
2024/04/12 12:27:19;;;;;;;3.58;1.20;;;18.90;87.50;;;;;;5423031;26;20007;-87
2024/04/12 12:29:48;;;;;;;2.45;0.95;;;19.10;84.90;;;;;;5456264;26;20010;-87
2024/04/12 12:32:14;;;;;;;4.43;0.90;;;19.30;85.20;;;;;;5455738;26;20006;-87
2024/04/12 12:34:43;;;;;;;1.63;1.02;;;19.60;83.80;;;;;;5456268;26;20006;-88
2024/04/12 12:37:09;;;;;;;2.30;0.80;;;19.70;83.60;;;;;;5423742;26;20006;-88
2024/04/12 12:39:37;;;;;;;5.05;1.13;;;19.90;82.60;;;;;;5424695;26;19995;-88
2024/04/12 12:42:09;;;;;;;3.05;0.80;;;20.20;81.50;;;;;;5423980;26;19991;-89
2024/04/12 12:44:38;;;;;;;2.53;1.20;;;20.40;82.30;;;;;;5455883;26;19990;-89
2024/04/12 12:47:05;;;;;;;5.03;1.40;;;20.70;80.60;;;;;;5455231;26;19991;-89
2024/04/12 12:49:46;;;;;;;5.10;1.10;;;20.80;81.20;;;;;;5456260;26;20002;-89
2024/04/12 12:52:12;;;;;;;2.72;1.20;;;20.90;79.10;;;;;;5455390;26;20225;-88
2024/04/12 12:54:38;;;;;;;2.42;1.08;;;21.10;79.60;;;;;;5424341;26;20015;-88
2024/04/12 12:57:07;;;;;;;3.10;1.00;;;21.30;79.20;;;;;;5423445;26;19994;-89
2024/04/12 12:59:43;;;;;;;6.60;1.02;;;21.50;80.30;;;;;;5423754;26;19991;-90
2024/04/12 13:02:16;;;;;;;3.00;1.10;;;21.80;82.30;;;;;;5423899;26;20006;-89
2024/04/12 13:04:48;;;;;;;5.07;1.30;;;22.10;80.10;;;;;;5423870;26;19991;-91
2024/04/12 13:07:17;;;;;;;4.13;1.00;;;22.30;78.40;;;;;;5423558;26;20067;-89
2024/04/12 13:09:43;;;;;;;4.75;1.00;;;22.60;79.00;;;;;;5424079;26;20068;-89
2024/04/12 13:12:11;;;;;;;2.92;0.77;;;22.80;78.60;;;;;;5423502;26;20003;-89
2024/04/12 13:14:39;;;;;;;3.38;1.05;;;23.10;80.90;;;;;;5455311;26;19990;-89
2024/04/12 13:17:12;;;;;;;4.65;1.00;;;23.50;78.50;;;;;;5454917;26;19994;-90
2024/04/12 13:19:41;;;;;;;4.20;0.90;;;23.90;76.80;;;;;;5424000;26;20066;-88
2024/04/12 13:22:11;;;;;;;6.10;1.10;;;24.60;72.70;;;;;;5454920;26;19991;-89
2024/04/12 13:24:37;;;;;;;2.67;0.70;;;25.50;71.00;;;;;;5423955;26;19999;-91
2024/04/12 13:27:07;;;;;;;1.95;1.00;;;26.60;70.00;;;;;;5454588;26;20005;-91
2024/04/12 13:29:33;;;;;;;3.85;1.30;;;27.40;65.80;;;;;;5455105;26;20064;-90
2024/04/12 13:32:00;;;;;;;3.88;1.20;;;28.10;64.10;;;;;;5423381;26;20001;-91
2024/04/12 13:34:25;;;;;;;3.45;0.90;;;28.60;61.50;;;;;;5423697;26;19999;-92
2024/04/12 13:36:53;;;;;;;3.60;0.65;;;29.10;59.10;;;;;;5455974;26;20001;-91
2024/04/12 13:39:21;;;;;;;4.55;0.80;;;29.20;58.50;;;;;;5422954;26;20011;-91
2024/04/12 13:41:54;;;;;;;3.35;0.90;;;28.70;57.60;;;;;;5455172;26;20019;-92
2024/04/12 13:50:45;;;;;;;3.95;1.00;;;28.10;58.40;;;;;;5423214;26;20083;-91
2024/04/12 13:52:42;;;;;;;6.38;1.00;;;27.10;58.90;;;;;;5455510;26;20001;-92
2024/04/12 13:55:11;;;;;;;1.42;0.80;;;26.90;59.70;;;;;;5422546;26;20006;-92
2024/04/12 13:57:38;;;;;;;2.25;0.68;;;26.70;59.50;;;;;;5423183;26;20002;-92
2024/04/12 14:00:09;;;;;;;1.60;0.52;;;26.30;60.30;;;;;;5454067;26;19991;-92
2024/04/12 14:02:35;;;;;;;2.42;0.82;;;25.90;60.50;;;;;;5423291;26;19987;-91
2024/04/12 14:05:02;;;;;;;2.28;0.70;;;25.50;61.20;;;;;;5422950;26;20005;-92
2024/04/12 14:07:33;;;;;;;2.17;0.80;;;25.20;62.40;;;;;;5423485;26;20002;-90
2024/04/12 14:10:02;;;;;;;2.92;0.70;;;24.90;62.90;;;;;;5422601;26;19999;-91
2024/04/12 14:12:28;;;;;;;4.80;0.90;;;24.80;65.30;;;;;;5454910;26;20065;-92
2024/04/12 14:14:54;;;;;;;2.78;0.70;;;24.50;65.50;;;;;;5456556;26;19998;-92
2024/04/12 14:17:20;;;;;;;4.05;0.90;;;24.40;66.90;;;;;;5423500;26;20004;-93
2024/04/12 14:19:46;;;;;;;3.60;1.02;;;24.30;66.70;;;;;;5423375;26;20028;-94
2024/04/12 14:22:12;;;;;;;2.95;0.80;;;24.20;67.10;;;;;;5454684;26;19995;-93
2024/04/12 14:24:56;;;;;;;1.40;0.60;;;24.30;66.80;;;;;;5423307;26;20439;-91
2024/04/12 14:27:21;;;;;;;2.88;0.80;;;24.20;66.00;;;;;;5457435;26;19995;-92
2024/04/12 14:29:47;;;;;;;2.50;0.70;;;24.00;66.40;;;;;;5425499;26;19995;-93
2024/04/12 14:32:15;;;;;;;2.42;0.80;;;24.10;67.70;;;;;;5457255;26;20442;-92
2024/04/12 14:34:44;;;;;;;1.00;0.50;;;24.00;67.80;;;;;;5426184;26;20432;-91